sensor_id;sensor_type;location;lat;lon;timestamp;P1;durP1;ratioP1;P2;durP2;ratioP2
57848;SDS011;68645;44.762;21.516;2023-04-25T00:00:49;48.42;;;43.35;;
57848;SDS011;68645;44.762;21.516;2023-04-25T00:03:17;67.80;;;61.05;;
57848;SDS011;68645;44.762;21.516;2023-04-25T00:05:44;88.18;;;79.43;;
57848;SDS011;68645;44.762;21.516;2023-04-25T00:08:11;85.70;;;77.18;;
57848;SDS011;68645;44.762;21.516;2023-04-25T00:10:37;75.97;;;67.68;;
57848;SDS011;68645;44.762;21.516;2023-04-25T00:13:03;36.38;;;32.58;;
57848;SDS011;68645;44.762;21.516;2023-04-25T00:15:29;12.55;;;11.13;;
57848;SDS011;68645;44.762;21.516;2023-04-25T00:17:56;11.98;;;7.50;;
57848;SDS011;68645;44.762;21.516;2023-04-25T00:20:22;11.48;;;8.98;;
57848;SDS011;68645;44.762;21.516;2023-04-25T00:22:50;11.13;;;8.80;;
57848;SDS011;68645;44.762;21.516;2023-04-25T00:25:18;28.67;;;25.33;;
57848;SDS011;68645;44.762;21.516;2023-04-25T00:27:44;13.52;;;9.88;;
57848;SDS011;68645;44.762;21.516;2023-04-25T00:30:10;12.57;;;9.90;;
57848;SDS011;68645;44.762;21.516;2023-04-25T00:32:37;11.48;;;9.02;;
57848;SDS011;68645;44.762;21.516;2023-04-25T00:35:03;11.00;;;9.27;;
57848;SDS011;68645;44.762;21.516;2023-04-25T00:37:29;33.38;;;28.98;;
57848;SDS011;68645;44.762;21.516;2023-04-25T00:39:57;60.42;;;54.08;;
57848;SDS011;68645;44.762;21.516;2023-04-25T00:42:23;72.85;;;65.05;;
57848;SDS011;68645;44.762;21.516;2023-04-25T00:44:49;32.40;;;28.50;;
57848;SDS011;68645;44.762;21.516;2023-04-25T00:47:16;22.27;;;19.88;;
57848;SDS011;68645;44.762;21.516;2023-04-25T00:49:42;19.45;;;17.35;;
57848;SDS011;68645;44.762;21.516;2023-04-25T00:52:08;19.23;;;15.40;;
57848;SDS011;68645;44.762;21.516;2023-04-25T00:54:35;13.30;;;10.60;;
57848;SDS011;68645;44.762;21.516;2023-04-25T00:57:01;14.00;;;10.55;;
57848;SDS011;68645;44.762;21.516;2023-04-25T00:59:28;13.30;;;10.68;;
57848;SDS011;68645;44.762;21.516;2023-04-25T01:01:55;14.70;;;10.00;;
57848;SDS011;68645;44.762;21.516;2023-04-25T01:04:21;11.90;;;9.35;;
57848;SDS011;68645;44.762;21.516;2023-04-25T01:06:48;14.32;;;11.35;;
57848;SDS011;68645;44.762;21.516;2023-04-25T01:09:14;29.75;;;26.65;;
57848;SDS011;68645;44.762;21.516;2023-04-25T01:11:41;45.47;;;38.42;;
57848;SDS011;68645;44.762;21.516;2023-04-25T01:14:07;55.53;;;49.47;;
57848;SDS011;68645;44.762;21.516;2023-04-25T01:16:33;100.50;;;90.20;;
57848;SDS011;68645;44.762;21.516;2023-04-25T01:18:59;53.90;;;46.15;;
57848;SDS011;68645;44.762;21.516;2023-04-25T01:21:25;15.32;;;13.55;;
57848;SDS011;68645;44.762;21.516;2023-04-25T01:23:53;12.82;;;10.65;;
57848;SDS011;68645;44.762;21.516;2023-04-25T01:26:20;12.80;;;9.68;;
57848;SDS011;68645;44.762;21.516;2023-04-25T01:28:47;14.30;;;10.23;;
57848;SDS011;68645;44.762;21.516;2023-04-25T01:31:13;11.68;;;9.68;;
57848;SDS011;68645;44.762;21.516;2023-04-25T01:33:40;11.77;;;9.82;;
57848;SDS011;68645;44.762;21.516;2023-04-25T01:36:06;12.20;;;9.82;;
57848;SDS011;68645;44.762;21.516;2023-04-25T01:38:32;11.40;;;9.48;;
57848;SDS011;68645;44.762;21.516;2023-04-25T01:40:58;15.38;;;10.20;;
57848;SDS011;68645;44.762;21.516;2023-04-25T01:43:25;13.55;;;10.70;;
57848;SDS011;68645;44.762;21.516;2023-04-25T01:45:51;11.98;;;9.68;;
57848;SDS011;68645;44.762;21.516;2023-04-25T01:48:18;12.88;;;10.63;;
57848;SDS011;68645;44.762;21.516;2023-04-25T01:50:44;18.10;;;11.43;;
57848;SDS011;68645;44.762;21.516;2023-04-25T01:53:10;18.85;;;16.02;;
57848;SDS011;68645;44.762;21.516;2023-04-25T01:55:38;16.02;;;14.18;;
57848;SDS011;68645;44.762;21.516;2023-04-25T01:58:04;25.17;;;22.50;;
57848;SDS011;68645;44.762;21.516;2023-04-25T02:00:38;27.90;;;23.60;;
57848;SDS011;68645;44.762;21.516;2023-04-25T02:03:05;27.83;;;24.83;;
57848;SDS011;68645;44.762;21.516;2023-04-25T02:05:38;32.10;;;27.08;;
57848;SDS011;68645;44.762;21.516;2023-04-25T02:08:06;20.95;;;18.15;;
57848;SDS011;68645;44.762;21.516;2023-04-25T02:10:33;48.33;;;40.42;;
57848;SDS011;68645;44.762;21.516;2023-04-25T02:12:59;57.20;;;51.00;;
57848;SDS011;68645;44.762;21.516;2023-04-25T02:15:25;55.08;;;47.40;;
57848;SDS011;68645;44.762;21.516;2023-04-25T02:17:51;30.98;;;25.83;;
57848;SDS011;68645;44.762;21.516;2023-04-25T02:20:21;20.40;;;17.52;;
57848;SDS011;68645;44.762;21.516;2023-04-25T02:22:48;19.95;;;15.13;;
57848;SDS011;68645;44.762;21.516;2023-04-25T02:25:14;16.63;;;14.80;;
57848;SDS011;68645;44.762;21.516;2023-04-25T02:27:45;22.45;;;18.02;;
57848;SDS011;68645;44.762;21.516;2023-04-25T02:30:11;26.65;;;22.45;;
57848;SDS011;68645;44.762;21.516;2023-04-25T02:32:38;25.98;;;22.85;;
57848;SDS011;68645;44.762;21.516;2023-04-25T02:35:04;23.05;;;20.25;;
57848;SDS011;68645;44.762;21.516;2023-04-25T02:37:31;20.73;;;16.00;;
57848;SDS011;68645;44.762;21.516;2023-04-25T02:39:58;16.38;;;13.15;;
57848;SDS011;68645;44.762;21.516;2023-04-25T02:42:24;22.75;;;17.55;;
57848;SDS011;68645;44.762;21.516;2023-04-25T02:44:50;23.27;;;18.58;;
57848;SDS011;68645;44.762;21.516;2023-04-25T02:47:17;16.58;;;13.38;;
57848;SDS011;68645;44.762;21.516;2023-04-25T02:49:43;17.55;;;13.77;;
57848;SDS011;68645;44.762;21.516;2023-04-25T02:52:10;15.02;;;12.52;;
57848;SDS011;68645;44.762;21.516;2023-04-25T02:54:37;15.63;;;11.70;;
57848;SDS011;68645;44.762;21.516;2023-04-25T02:57:03;17.55;;;12.23;;
57848;SDS011;68645;44.762;21.516;2023-04-25T02:59:29;15.63;;;12.57;;
57848;SDS011;68645;44.762;21.516;2023-04-25T03:01:56;15.35;;;12.48;;
57848;SDS011;68645;44.762;21.516;2023-04-25T03:04:22;14.98;;;12.05;;
57848;SDS011;68645;44.762;21.516;2023-04-25T03:06:52;17.52;;;14.00;;
57848;SDS011;68645;44.762;21.516;2023-04-25T03:09:18;19.33;;;15.35;;
57848;SDS011;68645;44.762;21.516;2023-04-25T03:11:44;18.20;;;13.63;;
57848;SDS011;68645;44.762;21.516;2023-04-25T03:14:11;18.40;;;14.60;;
57848;SDS011;68645;44.762;21.516;2023-04-25T03:16:37;21.92;;;16.55;;
57848;SDS011;68645;44.762;21.516;2023-04-25T03:19:04;20.92;;;15.75;;
57848;SDS011;68645;44.762;21.516;2023-04-25T03:21:33;20.52;;;15.73;;
57848;SDS011;68645;44.762;21.516;2023-04-25T03:24:01;21.02;;;15.82;;
57848;SDS011;68645;44.762;21.516;2023-04-25T03:26:27;23.02;;;17.30;;
57848;SDS011;68645;44.762;21.516;2023-04-25T03:28:54;25.30;;;17.38;;
57848;SDS011;68645;44.762;21.516;2023-04-25T03:31:20;24.25;;;17.73;;
57848;SDS011;68645;44.762;21.516;2023-04-25T03:33:47;28.38;;;18.52;;
57848;SDS011;68645;44.762;21.516;2023-04-25T03:36:13;25.55;;;20.13;;
57848;SDS011;68645;44.762;21.516;2023-04-25T03:38:39;22.30;;;16.92;;
57848;SDS011;68645;44.762;21.516;2023-04-25T03:41:06;25.52;;;18.38;;
57848;SDS011;68645;44.762;21.516;2023-04-25T03:43:33;22.88;;;16.65;;
57848;SDS011;68645;44.762;21.516;2023-04-25T03:45:59;21.25;;;16.77;;
57848;SDS011;68645;44.762;21.516;2023-04-25T03:48:26;15.45;;;11.77;;
57848;SDS011;68645;44.762;21.516;2023-04-25T03:50:52;19.10;;;13.60;;
57848;SDS011;68645;44.762;21.516;2023-04-25T03:53:19;12.70;;;10.07;;
57848;SDS011;68645;44.762;21.516;2023-04-25T03:55:45;14.98;;;10.60;;
57848;SDS011;68645;44.762;21.516;2023-04-25T03:58:11;12.55;;;9.93;;
57848;SDS011;68645;44.762;21.516;2023-04-25T04:00:37;13.00;;;9.70;;
57848;SDS011;68645;44.762;21.516;2023-04-25T04:03:03;15.40;;;10.05;;
57848;SDS011;68645;44.762;21.516;2023-04-25T04:05:30;13.32;;;9.48;;
57848;SDS011;68645;44.762;21.516;2023-04-25T04:07:57;14.63;;;9.85;;
57848;SDS011;68645;44.762;21.516;2023-04-25T04:10:24;14.32;;;9.52;;
57848;SDS011;68645;44.762;21.516;2023-04-25T04:12:51;13.82;;;9.45;;
57848;SDS011;68645;44.762;21.516;2023-04-25T04:15:17;13.98;;;8.88;;
57848;SDS011;68645;44.762;21.516;2023-04-25T04:17:43;15.27;;;9.23;;
57848;SDS011;68645;44.762;21.516;2023-04-25T04:20:10;12.60;;;9.15;;
57848;SDS011;68645;44.762;21.516;2023-04-25T04:22:36;11.70;;;8.93;;
57848;SDS011;68645;44.762;21.516;2023-04-25T04:25:03;14.38;;;9.45;;
57848;SDS011;68645;44.762;21.516;2023-04-25T04:27:30;13.10;;;9.50;;
57848;SDS011;68645;44.762;21.516;2023-04-25T04:29:57;12.57;;;9.75;;
57848;SDS011;68645;44.762;21.516;2023-04-25T04:32:23;13.10;;;9.70;;
57848;SDS011;68645;44.762;21.516;2023-04-25T04:34:50;13.43;;;10.45;;
57848;SDS011;68645;44.762;21.516;2023-04-25T04:37:17;14.32;;;9.55;;
57848;SDS011;68645;44.762;21.516;2023-04-25T04:39:43;11.98;;;9.68;;
57848;SDS011;68645;44.762;21.516;2023-04-25T04:42:10;12.75;;;9.32;;
57848;SDS011;68645;44.762;21.516;2023-04-25T04:44:36;18.58;;;13.07;;
57848;SDS011;68645;44.762;21.516;2023-04-25T04:47:04;11.88;;;9.05;;
57848;SDS011;68645;44.762;21.516;2023-04-25T04:49:31;13.10;;;10.05;;
57848;SDS011;68645;44.762;21.516;2023-04-25T04:51:57;14.80;;;11.05;;
57848;SDS011;68645;44.762;21.516;2023-04-25T04:54:25;15.68;;;11.68;;
57848;SDS011;68645;44.762;21.516;2023-04-25T04:56:52;19.33;;;14.20;;
57848;SDS011;68645;44.762;21.516;2023-04-25T04:59:18;18.40;;;12.63;;
57848;SDS011;68645;44.762;21.516;2023-04-25T05:01:44;20.23;;;15.65;;
57848;SDS011;68645;44.762;21.516;2023-04-25T05:04:11;23.27;;;16.20;;
57848;SDS011;68645;44.762;21.516;2023-04-25T05:06:38;19.98;;;14.13;;
57848;SDS011;68645;44.762;21.516;2023-04-25T05:09:04;18.23;;;13.30;;
57848;SDS011;68645;44.762;21.516;2023-04-25T05:11:30;16.98;;;12.32;;
57848;SDS011;68645;44.762;21.516;2023-04-25T05:13:56;15.63;;;12.65;;
57848;SDS011;68645;44.762;21.516;2023-04-25T05:16:22;13.32;;;10.43;;
57848;SDS011;68645;44.762;21.516;2023-04-25T05:18:48;12.10;;;9.82;;
57848;SDS011;68645;44.762;21.516;2023-04-25T05:21:15;13.00;;;9.70;;
57848;SDS011;68645;44.762;21.516;2023-04-25T05:23:41;12.20;;;10.18;;
57848;SDS011;68645;44.762;21.516;2023-04-25T05:26:07;15.55;;;11.25;;
57848;SDS011;68645;44.762;21.516;2023-04-25T05:28:39;15.98;;;12.25;;
57848;SDS011;68645;44.762;21.516;2023-04-25T05:31:05;16.40;;;11.15;;
57848;SDS011;68645;44.762;21.516;2023-04-25T05:33:32;15.15;;;11.90;;
57848;SDS011;68645;44.762;21.516;2023-04-25T05:35:58;17.05;;;12.52;;
57848;SDS011;68645;44.762;21.516;2023-04-25T05:38:24;16.75;;;11.98;;
57848;SDS011;68645;44.762;21.516;2023-04-25T05:40:51;15.15;;;10.52;;
57848;SDS011;68645;44.762;21.516;2023-04-25T05:43:17;11.32;;;9.10;;
57848;SDS011;68645;44.762;21.516;2023-04-25T05:45:43;11.50;;;8.38;;
57848;SDS011;68645;44.762;21.516;2023-04-25T05:48:09;13.10;;;9.30;;
57848;SDS011;68645;44.762;21.516;2023-04-25T05:50:35;10.10;;;8.13;;
57848;SDS011;68645;44.762;21.516;2023-04-25T05:53:01;13.18;;;9.90;;
57848;SDS011;68645;44.762;21.516;2023-04-25T05:55:27;11.20;;;8.60;;
57848;SDS011;68645;44.762;21.516;2023-04-25T05:57:54;9.48;;;7.40;;
57848;SDS011;68645;44.762;21.516;2023-04-25T06:00:20;11.95;;;8.77;;
57848;SDS011;68645;44.762;21.516;2023-04-25T06:15:28;10.05;;;6.90;;
57848;SDS011;68645;44.762;21.516;2023-04-25T06:17:54;7.90;;;6.30;;
57848;SDS011;68645;44.762;21.516;2023-04-25T06:20:20;7.55;;;5.80;;
57848;SDS011;68645;44.762;21.516;2023-04-25T06:22:49;18.48;;;15.98;;
57848;SDS011;68645;44.762;21.516;2023-04-25T06:25:15;9.65;;;7.88;;
57848;SDS011;68645;44.762;21.516;2023-04-25T06:27:41;6.95;;;5.10;;
57848;SDS011;68645;44.762;21.516;2023-04-25T06:30:08;7.07;;;5.35;;
57848;SDS011;68645;44.762;21.516;2023-04-25T06:32:34;10.20;;;7.95;;
57848;SDS011;68645;44.762;21.516;2023-04-25T06:35:01;7.93;;;5.80;;
57848;SDS011;68645;44.762;21.516;2023-04-25T06:37:27;7.35;;;5.28;;
57848;SDS011;68645;44.762;21.516;2023-04-25T06:39:53;6.28;;;4.60;;
57848;SDS011;68645;44.762;21.516;2023-04-25T06:42:19;8.68;;;5.78;;
57848;SDS011;68645;44.762;21.516;2023-04-25T06:44:45;10.18;;;5.65;;
57848;SDS011;68645;44.762;21.516;2023-04-25T06:47:11;6.00;;;4.75;;
57848;SDS011;68645;44.762;21.516;2023-04-25T06:49:37;7.63;;;5.80;;
57848;SDS011;68645;44.762;21.516;2023-04-25T06:52:04;9.18;;;6.90;;
57848;SDS011;68645;44.762;21.516;2023-04-25T06:54:30;8.98;;;6.25;;
57848;SDS011;68645;44.762;21.516;2023-04-25T06:56:56;13.50;;;9.15;;
57848;SDS011;68645;44.762;21.516;2023-04-25T06:59:22;14.75;;;8.73;;
57848;SDS011;68645;44.762;21.516;2023-04-25T07:01:49;12.73;;;8.60;;
57848;SDS011;68645;44.762;21.516;2023-04-25T07:04:15;19.73;;;12.82;;
57848;SDS011;68645;44.762;21.516;2023-04-25T07:06:41;23.40;;;14.80;;
57848;SDS011;68645;44.762;21.516;2023-04-25T07:09:08;37.17;;;23.20;;
57848;SDS011;68645;44.762;21.516;2023-04-25T07:11:37;18.67;;;13.10;;
57848;SDS011;68645;44.762;21.516;2023-04-25T07:14:04;11.68;;;8.88;;
57848;SDS011;68645;44.762;21.516;2023-04-25T07:16:30;17.23;;;12.68;;
57848;SDS011;68645;44.762;21.516;2023-04-25T07:18:56;13.35;;;10.43;;
57848;SDS011;68645;44.762;21.516;2023-04-25T07:21:22;14.77;;;11.10;;
57848;SDS011;68645;44.762;21.516;2023-04-25T07:23:48;9.82;;;6.85;;
57848;SDS011;68645;44.762;21.516;2023-04-25T07:26:14;10.60;;;8.48;;
57848;SDS011;68645;44.762;21.516;2023-04-25T07:28:40;8.43;;;7.40;;
57848;SDS011;68645;44.762;21.516;2023-04-25T07:31:06;17.08;;;11.85;;
57848;SDS011;68645;44.762;21.516;2023-04-25T07:33:33;15.23;;;11.77;;
57848;SDS011;68645;44.762;21.516;2023-04-25T07:35:59;14.95;;;12.45;;
57848;SDS011;68645;44.762;21.516;2023-04-25T07:38:25;9.70;;;7.93;;
57848;SDS011;68645;44.762;21.516;2023-04-25T07:40:52;10.15;;;7.30;;
57848;SDS011;68645;44.762;21.516;2023-04-25T07:43:18;13.63;;;10.48;;
57848;SDS011;68645;44.762;21.516;2023-04-25T07:45:44;9.20;;;8.00;;
57848;SDS011;68645;44.762;21.516;2023-04-25T07:48:10;11.00;;;9.68;;
57848;SDS011;68645;44.762;21.516;2023-04-25T07:50:36;11.65;;;9.10;;
57848;SDS011;68645;44.762;21.516;2023-04-25T07:53:02;9.10;;;7.72;;
57848;SDS011;68645;44.762;21.516;2023-04-25T07:55:29;13.02;;;9.90;;
57848;SDS011;68645;44.762;21.516;2023-04-25T07:57:55;10.45;;;7.43;;
57848;SDS011;68645;44.762;21.516;2023-04-25T08:00:21;8.50;;;6.50;;
57848;SDS011;68645;44.762;21.516;2023-04-25T08:02:47;18.15;;;11.68;;
57848;SDS011;68645;44.762;21.516;2023-04-25T08:05:15;16.10;;;12.63;;
57848;SDS011;68645;44.762;21.516;2023-04-25T08:07:42;12.20;;;8.15;;
57848;SDS011;68645;44.762;21.516;2023-04-25T08:10:08;5.32;;;3.80;;
57848;SDS011;68645;44.762;21.516;2023-04-25T08:12:34;7.45;;;5.18;;
57848;SDS011;68645;44.762;21.516;2023-04-25T08:15:01;10.45;;;6.90;;
57848;SDS011;68645;44.762;21.516;2023-04-25T08:17:27;9.90;;;5.68;;
57848;SDS011;68645;44.762;21.516;2023-04-25T08:19:53;11.10;;;6.80;;
57848;SDS011;68645;44.762;21.516;2023-04-25T08:22:20;6.97;;;4.90;;
57848;SDS011;68645;44.762;21.516;2023-04-25T08:24:46;6.50;;;4.80;;
57848;SDS011;68645;44.762;21.516;2023-04-25T08:27:12;7.78;;;5.07;;
57848;SDS011;68645;44.762;21.516;2023-04-25T08:29:38;8.00;;;5.53;;
57848;SDS011;68645;44.762;21.516;2023-04-25T08:32:04;8.00;;;5.95;;
57848;SDS011;68645;44.762;21.516;2023-04-25T08:34:31;11.75;;;8.30;;
57848;SDS011;68645;44.762;21.516;2023-04-25T08:36:57;9.10;;;7.32;;
57848;SDS011;68645;44.762;21.516;2023-04-25T08:39:23;12.27;;;8.88;;
57848;SDS011;68645;44.762;21.516;2023-04-25T08:41:49;9.70;;;6.72;;
57848;SDS011;68645;44.762;21.516;2023-04-25T08:44:16;9.55;;;6.45;;
57848;SDS011;68645;44.762;21.516;2023-04-25T08:46:42;9.48;;;7.40;;
57848;SDS011;68645;44.762;21.516;2023-04-25T08:49:09;8.05;;;6.70;;
57848;SDS011;68645;44.762;21.516;2023-04-25T08:51:36;17.15;;;11.77;;
57848;SDS011;68645;44.762;21.516;2023-04-25T08:54:09;18.05;;;12.43;;
57848;SDS011;68645;44.762;21.516;2023-04-25T08:56:45;14.43;;;10.13;;
57848;SDS011;68645;44.762;21.516;2023-04-25T08:59:13;8.57;;;6.70;;
57848;SDS011;68645;44.762;21.516;2023-04-25T09:01:39;9.18;;;6.80;;
57848;SDS011;68645;44.762;21.516;2023-04-25T09:04:05;11.00;;;8.30;;
57848;SDS011;68645;44.762;21.516;2023-04-25T09:06:31;10.27;;;7.63;;
57848;SDS011;68645;44.762;21.516;2023-04-25T09:09:06;12.48;;;8.65;;
57848;SDS011;68645;44.762;21.516;2023-04-25T09:11:33;15.95;;;11.07;;
57848;SDS011;68645;44.762;21.516;2023-04-25T09:19:25;49.30;;;27.40;;
57848;SDS011;68645;44.762;21.516;2023-04-25T09:21:55;79.00;;;41.67;;
57848;SDS011;68645;44.762;21.516;2023-04-25T09:24:38;235.98;;;120.15;;
57848;SDS011;68645;44.762;21.516;2023-04-25T09:27:05;49.90;;;27.90;;
57848;SDS011;68645;44.762;21.516;2023-04-25T09:29:35;156.82;;;82.63;;
57848;SDS011;68645;44.762;21.516;2023-04-25T09:32:16;176.63;;;92.63;;
57848;SDS011;68645;44.762;21.516;2023-04-25T09:34:43;53.65;;;29.40;;
57848;SDS011;68645;44.762;21.516;2023-04-25T09:37:10;75.03;;;39.80;;
57848;SDS011;68645;44.762;21.516;2023-04-25T09:39:37;135.27;;;71.13;;
57848;SDS011;68645;44.762;21.516;2023-04-25T09:42:04;112.78;;;58.38;;
57848;SDS011;68645;44.762;21.516;2023-04-25T09:44:31;60.50;;;33.00;;
57848;SDS011;68645;44.762;21.516;2023-04-25T09:46:57;61.33;;;35.17;;
57848;SDS011;68645;44.762;21.516;2023-04-25T09:49:25;61.80;;;37.22;;
57848;SDS011;68645;44.762;21.516;2023-04-25T09:51:56;70.45;;;43.70;;
57848;SDS011;68645;44.762;21.516;2023-04-25T09:54:23;33.30;;;21.08;;
57848;SDS011;68645;44.762;21.516;2023-04-25T09:56:49;23.77;;;16.77;;
57848;SDS011;68645;44.762;21.516;2023-04-25T09:59:17;27.58;;;18.02;;
57848;SDS011;68645;44.762;21.516;2023-04-25T10:01:45;32.75;;;23.00;;
57848;SDS011;68645;44.762;21.516;2023-04-25T10:04:11;28.38;;;20.73;;
57848;SDS011;68645;44.762;21.516;2023-04-25T10:06:37;25.58;;;20.33;;
57848;SDS011;68645;44.762;21.516;2023-04-25T10:09:04;34.47;;;23.73;;
57848;SDS011;68645;44.762;21.516;2023-04-25T10:11:33;36.08;;;24.55;;
57848;SDS011;68645;44.762;21.516;2023-04-25T10:14:00;14.10;;;10.90;;
57848;SDS011;68645;44.762;21.516;2023-04-25T10:16:26;16.08;;;12.68;;
57848;SDS011;68645;44.762;21.516;2023-04-25T10:18:53;18.38;;;14.77;;
57848;SDS011;68645;44.762;21.516;2023-04-25T10:21:19;15.32;;;12.27;;
57848;SDS011;68645;44.762;21.516;2023-04-25T10:23:46;11.45;;;7.93;;
57848;SDS011;68645;44.762;21.516;2023-04-25T10:26:12;15.60;;;12.73;;
57848;SDS011;68645;44.762;21.516;2023-04-25T10:28:55;15.85;;;12.55;;
57848;SDS011;68645;44.762;21.516;2023-04-25T10:31:24;21.85;;;17.65;;
57848;SDS011;68645;44.762;21.516;2023-04-25T10:33:51;26.30;;;20.98;;
57848;SDS011;68645;44.762;21.516;2023-04-25T10:36:17;14.30;;;11.60;;
57848;SDS011;68645;44.762;21.516;2023-04-25T10:38:45;14.73;;;13.20;;
57848;SDS011;68645;44.762;21.516;2023-04-25T10:41:12;15.00;;;13.40;;
57848;SDS011;68645;44.762;21.516;2023-04-25T10:43:39;12.05;;;10.82;;
57848;SDS011;68645;44.762;21.516;2023-04-25T10:46:15;7.78;;;6.82;;
57848;SDS011;68645;44.762;21.516;2023-04-25T10:48:46;7.35;;;5.45;;
57848;SDS011;68645;44.762;21.516;2023-04-25T10:53:39;8.25;;;5.95;;
57848;SDS011;68645;44.762;21.516;2023-04-25T10:56:18;12.20;;;11.00;;
57848;SDS011;68645;44.762;21.516;2023-04-25T10:58:45;10.82;;;7.93;;
57848;SDS011;68645;44.762;21.516;2023-04-25T11:01:12;13.02;;;10.27;;
57848;SDS011;68645;44.762;21.516;2023-04-25T11:03:41;19.30;;;16.33;;
57848;SDS011;68645;44.762;21.516;2023-04-25T11:06:15;13.75;;;10.90;;
57848;SDS011;68645;44.762;21.516;2023-04-25T11:08:47;15.93;;;11.45;;
57848;SDS011;68645;44.762;21.516;2023-04-25T11:11:14;11.32;;;8.52;;
57848;SDS011;68645;44.762;21.516;2023-04-25T11:13:40;9.15;;;6.63;;
57848;SDS011;68645;44.762;21.516;2023-04-25T11:16:07;10.77;;;8.52;;
57848;SDS011;68645;44.762;21.516;2023-04-25T11:18:33;12.38;;;8.88;;
57848;SDS011;68645;44.762;21.516;2023-04-25T11:21:00;15.65;;;10.10;;
57848;SDS011;68645;44.762;21.516;2023-04-25T11:23:26;8.18;;;5.80;;
57848;SDS011;68645;44.762;21.516;2023-04-25T11:25:52;13.30;;;10.38;;
57848;SDS011;68645;44.762;21.516;2023-04-25T11:28:21;11.73;;;8.38;;
57848;SDS011;68645;44.762;21.516;2023-04-25T11:30:48;10.48;;;7.85;;
57848;SDS011;68645;44.762;21.516;2023-04-25T11:33:17;15.73;;;12.40;;
57848;SDS011;68645;44.762;21.516;2023-04-25T11:35:44;12.70;;;9.52;;
57848;SDS011;68645;44.762;21.516;2023-04-25T11:38:10;24.25;;;17.27;;
57848;SDS011;68645;44.762;21.516;2023-04-25T11:40:36;12.32;;;8.45;;
57848;SDS011;68645;44.762;21.516;2023-04-25T11:43:02;8.38;;;6.07;;
57848;SDS011;68645;44.762;21.516;2023-04-25T11:45:28;9.88;;;5.45;;
57848;SDS011;68645;44.762;21.516;2023-04-25T11:47:56;6.57;;;4.63;;
57848;SDS011;68645;44.762;21.516;2023-04-25T11:50:22;8.60;;;6.30;;
57848;SDS011;68645;44.762;21.516;2023-04-25T11:52:48;7.00;;;4.47;;
57848;SDS011;68645;44.762;21.516;2023-04-25T11:55:16;7.50;;;5.85;;
57848;SDS011;68645;44.762;21.516;2023-04-25T11:57:42;8.57;;;6.45;;
57848;SDS011;68645;44.762;21.516;2023-04-25T12:00:21;13.13;;;10.35;;
57848;SDS011;68645;44.762;21.516;2023-04-25T12:02:51;22.02;;;15.43;;
57848;SDS011;68645;44.762;21.516;2023-04-25T12:05:17;22.30;;;16.63;;
57848;SDS011;68645;44.762;21.516;2023-04-25T12:07:45;11.32;;;7.63;;
57848;SDS011;68645;44.762;21.516;2023-04-25T12:10:12;11.93;;;10.02;;
57848;SDS011;68645;44.762;21.516;2023-04-25T12:12:40;11.30;;;8.77;;
57848;SDS011;68645;44.762;21.516;2023-04-25T12:17:37;6.18;;;5.05;;
57848;SDS011;68645;44.762;21.516;2023-04-25T12:20:12;11.65;;;8.13;;
57848;SDS011;68645;44.762;21.516;2023-04-25T12:22:40;13.93;;;9.98;;
57848;SDS011;68645;44.762;21.516;2023-04-25T12:25:09;11.40;;;8.38;;
57848;SDS011;68645;44.762;21.516;2023-04-25T12:27:36;8.48;;;5.40;;
57848;SDS011;68645;44.762;21.516;2023-04-25T12:30:02;8.60;;;6.30;;
57848;SDS011;68645;44.762;21.516;2023-04-25T12:32:28;8.18;;;5.90;;
57848;SDS011;68645;44.762;21.516;2023-04-25T12:34:55;12.20;;;7.95;;
57848;SDS011;68645;44.762;21.516;2023-04-25T12:37:21;11.13;;;6.85;;
57848;SDS011;68645;44.762;21.516;2023-04-25T12:39:47;9.77;;;5.45;;
57848;SDS011;68645;44.762;21.516;2023-04-25T12:42:13;6.63;;;5.32;;
57848;SDS011;68645;44.762;21.516;2023-04-25T12:44:39;6.85;;;5.43;;
57848;SDS011;68645;44.762;21.516;2023-04-25T12:47:06;7.65;;;4.70;;
57848;SDS011;68645;44.762;21.516;2023-04-25T12:49:32;4.70;;;3.60;;
57848;SDS011;68645;44.762;21.516;2023-04-25T12:51:58;5.25;;;3.80;;
57848;SDS011;68645;44.762;21.516;2023-04-25T12:54:25;6.40;;;4.15;;
57848;SDS011;68645;44.762;21.516;2023-04-25T12:56:51;8.60;;;5.50;;
57848;SDS011;68645;44.762;21.516;2023-04-25T12:59:17;36.22;;;21.05;;
57848;SDS011;68645;44.762;21.516;2023-04-25T13:01:45;33.90;;;21.67;;
57848;SDS011;68645;44.762;21.516;2023-04-25T13:04:11;26.92;;;18.17;;
57848;SDS011;68645;44.762;21.516;2023-04-25T13:06:37;13.27;;;9.52;;
57848;SDS011;68645;44.762;21.516;2023-04-25T13:09:03;8.88;;;5.68;;
57848;SDS011;68645;44.762;21.516;2023-04-25T13:11:29;8.43;;;6.00;;
57848;SDS011;68645;44.762;21.516;2023-04-25T13:13:56;9.32;;;6.40;;
57848;SDS011;68645;44.762;21.516;2023-04-25T13:16:22;19.08;;;9.90;;
57848;SDS011;68645;44.762;21.516;2023-04-25T13:18:48;21.58;;;10.45;;
57848;SDS011;68645;44.762;21.516;2023-04-25T13:21:14;11.73;;;7.03;;
57848;SDS011;68645;44.762;21.516;2023-04-25T13:23:40;14.30;;;8.80;;
57848;SDS011;68645;44.762;21.516;2023-04-25T13:26:08;16.33;;;11.20;;
57848;SDS011;68645;44.762;21.516;2023-04-25T13:28:34;6.43;;;4.30;;
57848;SDS011;68645;44.762;21.516;2023-04-25T13:31:00;6.03;;;4.00;;
57848;SDS011;68645;44.762;21.516;2023-04-25T13:33:26;5.82;;;4.32;;
57848;SDS011;68645;44.762;21.516;2023-04-25T13:35:52;9.48;;;4.20;;
57848;SDS011;68645;44.762;21.516;2023-04-25T13:38:23;7.43;;;5.43;;
57848;SDS011;68645;44.762;21.516;2023-04-25T13:40:49;10.57;;;5.18;;
57848;SDS011;68645;44.762;21.516;2023-04-25T13:43:20;10.93;;;7.13;;
57848;SDS011;68645;44.762;21.516;2023-04-25T13:45:49;10.75;;;6.65;;
57848;SDS011;68645;44.762;21.516;2023-04-25T13:48:17;10.52;;;6.47;;
57848;SDS011;68645;44.762;21.516;2023-04-25T13:50:43;15.27;;;8.25;;
57848;SDS011;68645;44.762;21.516;2023-04-25T13:53:10;16.25;;;10.52;;
57848;SDS011;68645;44.762;21.516;2023-04-25T13:55:37;17.27;;;11.35;;
57848;SDS011;68645;44.762;21.516;2023-04-25T13:58:03;33.28;;;23.20;;
57848;SDS011;68645;44.762;21.516;2023-04-25T14:00:38;29.98;;;20.73;;
57848;SDS011;68645;44.762;21.516;2023-04-25T14:03:05;45.67;;;28.65;;
57848;SDS011;68645;44.762;21.516;2023-04-25T14:05:32;32.58;;;20.67;;
57848;SDS011;68645;44.762;21.516;2023-04-25T14:08:03;16.75;;;10.90;;
57848;SDS011;68645;44.762;21.516;2023-04-25T14:10:29;17.92;;;10.77;;
57848;SDS011;68645;44.762;21.516;2023-04-25T14:12:55;19.48;;;11.05;;
57848;SDS011;68645;44.762;21.516;2023-04-25T14:15:21;15.98;;;8.60;;
57848;SDS011;68645;44.762;21.516;2023-04-25T14:17:47;21.23;;;12.48;;
57848;SDS011;68645;44.762;21.516;2023-04-25T14:20:14;20.02;;;12.23;;
57848;SDS011;68645;44.762;21.516;2023-04-25T14:22:40;51.15;;;32.72;;
57848;SDS011;68645;44.762;21.516;2023-04-25T14:25:08;45.58;;;30.55;;
57848;SDS011;68645;44.762;21.516;2023-04-25T14:27:35;25.05;;;16.55;;
57848;SDS011;68645;44.762;21.516;2023-04-25T14:30:01;21.15;;;12.25;;
57848;SDS011;68645;44.762;21.516;2023-04-25T14:32:27;68.20;;;41.70;;
57848;SDS011;68645;44.762;21.516;2023-04-25T14:34:53;62.95;;;38.45;;
57848;SDS011;68645;44.762;21.516;2023-04-25T14:37:19;51.72;;;30.25;;